createdAt,value
2023-01-19T00:00:33.113Z,45.42
2023-01-19T00:06:26.022Z,45.25
2023-01-19T00:12:18.714Z,43.90
2023-01-19T00:18:11.403Z,42.33
2023-01-19T00:24:04.037Z,41.90
2023-01-19T00:29:57.066Z,41.50
2023-01-19T00:35:55.189Z,41.77
2023-01-19T00:42:06.560Z,43.03
2023-01-19T00:47:59.107Z,43.38
2023-01-19T00:53:53.147Z,42.58
2023-01-19T00:59:46.076Z,42.45
2023-01-19T01:05:41.485Z,44.42
2023-01-19T01:11:34.136Z,44.90
2023-01-19T01:17:27.022Z,44.27
2023-01-19T01:23:23.168Z,36.67
2023-01-19T01:29:16.557Z,25.42
2023-01-19T01:35:10.616Z,26.73
2023-01-19T01:41:03.390Z,23.05
2023-01-19T01:46:56.887Z,22.02
2023-01-19T01:53:14.075Z,17.25
2023-01-19T01:59:09.847Z,16.17
2023-01-19T02:05:11.195Z,15.00
2023-01-19T02:11:22.978Z,10.23
2023-01-19T02:17:14.868Z,8.98
2023-01-19T02:23:15.855Z,9.10
2023-01-19T02:29:12.059Z,8.35
2023-01-19T02:35:04.905Z,8.35
2023-01-19T02:41:00.157Z,7.80
2023-01-19T02:46:54.666Z,8.25
2023-01-19T02:52:47.507Z,8.70
2023-01-19T02:58:46.653Z,8.43
2023-01-19T03:04:54.730Z,8.82
2023-01-19T03:11:08.621Z,7.97
2023-01-19T03:17:06.465Z,7.68
2023-01-19T03:23:05.545Z,7.30
2023-01-19T03:29:02.348Z,7.65
2023-01-19T03:34:55.391Z,7.57
2023-01-19T03:40:48.445Z,7.85
2023-01-19T03:46:41.208Z,8.23
2023-01-19T03:52:36.458Z,8.48
2023-01-19T03:58:28.534Z,7.93
2023-01-19T04:04:20.406Z,9.07
2023-01-19T04:10:13.010Z,9.07
2023-01-19T04:16:06.910Z,10.52
2023-01-19T04:21:59.992Z,11.77
2023-01-19T04:27:54.165Z,12.35
2023-01-19T04:33:46.616Z,13.15
2023-01-19T04:39:38.700Z,14.65
2023-01-19T04:45:32.917Z,14.18
2023-01-19T04:51:25.765Z,15.82
2023-01-19T04:57:19.155Z,15.30
2023-01-19T05:03:11.936Z,15.07
2023-01-19T05:09:05.304Z,15.38
2023-01-19T05:14:57.674Z,16.13
2023-01-19T05:20:49.604Z,15.50
2023-01-19T05:26:42.694Z,13.50
2023-01-19T05:32:34.843Z,12.68
2023-01-19T05:38:35.299Z,11.37
2023-01-19T05:44:28.855Z,11.70
2023-01-19T05:50:21.713Z,11.30
2023-01-19T05:56:13.921Z,12.68
2023-01-19T06:02:07.977Z,12.37
2023-01-19T06:08:02.283Z,10.55
2023-01-19T06:13:54.921Z,10.27
2023-01-19T06:19:48.883Z,8.55
2023-01-19T06:25:40.963Z,9.82
2023-01-19T06:31:34.842Z,9.95
2023-01-19T06:37:28.565Z,11.02
2023-01-19T06:43:22.207Z,11.23
2023-01-19T06:55:10.871Z,10.63
2023-01-19T07:01:05.414Z,10.85
2023-01-19T07:06:59.083Z,12.05
2023-01-19T07:12:52.222Z,11.85
2023-01-19T07:18:45.499Z,10.98
2023-01-19T07:24:38.382Z,12.00
2023-01-19T07:30:33.649Z,11.15
2023-01-19T07:36:26.343Z,13.10
2023-01-19T07:42:19.521Z,12.20
2023-01-19T07:48:13.218Z,10.75
2023-01-19T07:54:08.602Z,10.70
2023-01-19T08:00:02.375Z,11.10
2023-01-19T08:06:06.327Z,9.25
2023-01-19T08:11:58.846Z,11.20
2023-01-19T08:17:59.527Z,12.43
2023-01-19T08:23:54.416Z,12.18
2023-01-19T08:29:47.164Z,12.57
2023-01-19T08:35:42.204Z,12.23
2023-01-19T08:41:34.268Z,12.70
2023-01-19T08:47:26.866Z,14.37
2023-01-19T08:53:21.268Z,12.07
2023-01-19T08:59:14.305Z,13.82
2023-01-19T09:05:07.539Z,12.82
2023-01-19T09:11:00.263Z,13.20
2023-01-19T09:16:53.356Z,12.43
2023-01-19T09:22:47.853Z,11.70
2023-01-19T09:28:40.733Z,10.20
2023-01-19T09:34:33.633Z,9.77
2023-01-19T09:40:28.387Z,9.43
2023-01-19T09:46:33.418Z,6.72
2023-01-19T09:52:26.644Z,8.75
2023-01-19T09:58:21.249Z,9.65
2023-01-19T10:04:24.624Z,9.25
2023-01-19T10:10:25.433Z,10.68
2023-01-19T10:16:41.903Z,7.85
2023-01-19T10:22:34.033Z,8.50
2023-01-19T10:28:27.745Z,7.53
2023-01-19T10:34:23.530Z,9.48
2023-01-19T10:40:25.695Z,9.10
2023-01-19T10:46:24.558Z,8.30
2023-01-19T10:52:29.236Z,8.25
2023-01-19T10:58:35.340Z,7.80
2023-01-19T11:04:30.129Z,7.00
2023-01-19T11:10:25.877Z,7.72
2023-01-19T11:16:35.066Z,7.78
2023-01-19T11:22:30.663Z,8.10
2023-01-19T11:28:31.886Z,8.38
2023-01-19T11:34:42.404Z,7.97
2023-01-19T11:40:36.137Z,9.02
2023-01-19T11:46:33.713Z,8.77
2023-01-19T11:52:41.236Z,7.72
2023-01-19T11:58:42.184Z,6.97
2023-01-19T12:04:39.703Z,6.78
2023-01-19T12:10:37.519Z,8.57
2023-01-19T12:16:33.069Z,9.30
2023-01-19T12:22:29.152Z,8.20
2023-01-19T12:28:28.312Z,8.00
2023-01-19T12:34:27.816Z,9.13
2023-01-19T12:40:19.482Z,7.78
2023-01-19T12:46:30.612Z,8.45
2023-01-19T12:52:30.054Z,7.75
2023-01-19T12:58:25.689Z,9.82
2023-01-19T13:04:33.313Z,9.30
2023-01-19T13:11:00.223Z,9.43
2023-01-19T13:17:00.902Z,8.70
2023-01-19T13:23:19.053Z,9.20
2023-01-19T13:29:25.568Z,8.55
2023-01-19T13:35:20.492Z,7.40
2023-01-19T13:41:19.415Z,7.47
2023-01-19T13:47:19.528Z,8.43
2023-01-19T13:53:20.791Z,8.80
2023-01-19T13:59:13.832Z,8.50
2023-01-19T14:05:26.264Z,8.68
2023-01-19T14:11:19.520Z,8.73
2023-01-19T14:17:31.253Z,8.73
2023-01-19T14:23:42.950Z,7.18
2023-01-19T14:29:38.292Z,7.95
2023-01-19T14:35:31.573Z,8.15
2023-01-19T14:41:37.886Z,9.55
2023-01-19T14:47:35.924Z,9.23
2023-01-19T14:53:30.067Z,8.68
2023-01-19T14:59:22.223Z,12.80
2023-01-19T15:05:15.719Z,14.82
2023-01-19T15:11:22.094Z,15.45
2023-01-19T15:17:25.761Z,16.98
2023-01-19T15:23:18.189Z,14.07
2023-01-19T15:29:22.352Z,16.17
2023-01-19T15:35:20.014Z,16.15
2023-01-19T15:41:30.963Z,13.65
2023-01-19T15:47:24.435Z,15.10
2023-01-19T15:53:20.252Z,15.05
2023-01-19T15:59:12.456Z,15.43
2023-01-19T16:05:06.246Z,13.87
2023-01-19T16:16:50.566Z,28.25
2023-01-19T16:22:43.526Z,32.40
2023-01-19T16:28:38.071Z,30.73
2023-01-19T16:34:30.663Z,42.97
2023-01-19T16:40:23.543Z,41.33
2023-01-19T16:46:31.159Z,37.42
2023-01-19T16:52:23.418Z,33.13
2023-01-19T16:58:15.807Z,31.20
2023-01-19T17:04:08.751Z,28.95
2023-01-19T17:10:02.121Z,29.52
2023-01-19T17:16:00.803Z,33.13
2023-01-19T17:21:53.562Z,31.35
2023-01-19T17:27:48.834Z,39.42
2023-01-19T17:33:44.955Z,39.67
2023-01-19T17:39:39.619Z,37.80
2023-01-19T17:45:36.612Z,39.92
2023-01-19T17:51:29.373Z,41.60
2023-01-19T17:57:21.810Z,40.90
2023-01-19T18:03:18.683Z,35.33
2023-01-19T18:09:11.445Z,33.90
2023-01-19T18:15:08.844Z,33.37
2023-01-19T18:21:04.809Z,35.47
2023-01-19T18:26:57.872Z,37.13
2023-01-19T18:32:52.379Z,44.05
2023-01-19T18:38:46.004Z,50.83
2023-01-19T18:44:38.942Z,48.65
2023-01-19T18:50:31.921Z,51.70
2023-01-19T19:02:17.604Z,52.80
2023-01-19T19:08:10.135Z,52.43
2023-01-19T19:14:03.318Z,82.18
2023-01-19T19:19:55.851Z,39.35
2023-01-19T19:31:43.151Z,53.35
2023-01-19T19:43:28.853Z,43.97
2023-01-19T19:49:21.712Z,45.20
2023-01-19T19:55:14.976Z,46.65
2023-01-19T20:01:10.939Z,44.08
2023-01-19T20:07:03.775Z,41.92
2023-01-19T20:12:56.055Z,45.40
2023-01-19T20:18:54.454Z,45.40
2023-01-19T20:24:52.675Z,36.45
2023-01-19T20:30:46.211Z,37.63
2023-01-19T20:36:38.935Z,41.05
2023-01-19T20:42:30.643Z,41.53
2023-01-19T20:48:23.343Z,45.10
2023-01-19T20:54:19.503Z,53.45
2023-01-19T21:00:12.669Z,44.33
2023-01-19T21:11:58.040Z,49.13
2023-01-19T21:17:50.004Z,49.28
2023-01-19T21:29:37.473Z,54.03
2023-01-19T21:35:31.088Z,59.97
2023-01-19T21:41:25.671Z,65.70
2023-01-19T21:47:18.343Z,62.40
2023-01-19T21:53:11.773Z,59.20
2023-01-19T21:59:05.342Z,56.22
2023-01-19T22:04:58.424Z,53.50
2023-01-19T22:10:51.126Z,50.27
2023-01-19T22:16:43.361Z,52.57
2023-01-19T22:22:37.363Z,53.53
2023-01-19T22:28:30.612Z,57.08
2023-01-19T22:34:23.451Z,58.97
2023-01-19T22:40:16.770Z,49.03
2023-01-19T22:52:02.183Z,48.97
2023-01-19T22:57:54.390Z,48.77
2023-01-19T23:03:47.687Z,47.88
2023-01-19T23:09:40.462Z,47.05
2023-01-19T23:21:29.722Z,48.67
2023-01-19T23:27:23.141Z,46.97
2023-01-19T23:33:15.733Z,50.37
2023-01-19T23:39:13.863Z,49.22
2023-01-19T23:45:07.389Z,49.53
2023-01-19T23:56:52.656Z,48.87
